createdAt,value
2023-05-07T00:01:01.181Z,2.80
2023-05-07T00:03:29.063Z,2.53
2023-05-07T00:05:57.526Z,3.20
2023-05-07T00:08:25.244Z,2.67
2023-05-07T00:10:53.367Z,2.50
2023-05-07T00:13:21.371Z,2.55
2023-05-07T00:15:50.616Z,2.83
2023-05-07T00:18:21.943Z,2.88
2023-05-07T00:20:49.579Z,2.40
2023-05-07T00:23:17.314Z,2.55
2023-05-07T00:25:45.150Z,2.80
2023-05-07T00:28:12.962Z,2.40
2023-05-07T00:30:40.889Z,3.08
2023-05-07T00:33:10.219Z,2.70
2023-05-07T00:35:38.054Z,2.45
2023-05-07T00:38:05.999Z,2.60
2023-05-07T00:40:34.146Z,2.45
2023-05-07T00:43:02.405Z,2.42
2023-05-07T00:45:30.851Z,2.70
2023-05-07T00:48:02.121Z,2.78
2023-05-07T00:50:32.359Z,2.78
2023-05-07T00:53:02.100Z,2.42
2023-05-07T00:55:30.723Z,2.65
2023-05-07T00:58:00.050Z,2.90
2023-05-07T01:00:28.079Z,2.63
2023-05-07T01:02:59.907Z,2.60
2023-05-07T01:05:32.799Z,2.63
2023-05-07T01:08:03.914Z,2.72
2023-05-07T01:10:35.671Z,2.80
2023-05-07T01:13:04.168Z,2.97
2023-05-07T01:15:32.180Z,2.38
2023-05-07T01:18:02.945Z,2.30
2023-05-07T01:20:35.626Z,3.00
2023-05-07T01:23:06.446Z,2.33
2023-05-07T01:25:34.294Z,2.33
2023-05-07T01:28:03.815Z,2.83
2023-05-07T01:30:38.038Z,2.88
2023-05-07T01:33:12.958Z,2.25
2023-05-07T01:35:51.110Z,2.83
2023-05-07T01:38:21.134Z,2.85
2023-05-07T01:40:49.313Z,3.10
2023-05-07T01:43:17.404Z,2.65
2023-05-07T01:45:46.716Z,2.70
2023-05-07T01:48:16.306Z,3.03
2023-05-07T01:50:45.404Z,2.80
2023-05-07T01:53:13.989Z,2.55
2023-05-07T01:55:43.372Z,2.83
2023-05-07T01:58:11.797Z,2.60
2023-05-07T02:00:39.680Z,3.10
2023-05-07T02:03:08.887Z,3.15
2023-05-07T02:05:45.465Z,2.70
2023-05-07T02:08:20.725Z,2.90
2023-05-07T02:10:50.886Z,3.00
2023-05-07T02:13:18.801Z,2.90
2023-05-07T02:15:50.206Z,3.00
2023-05-07T02:18:19.157Z,3.00
2023-05-07T02:20:47.113Z,2.97
2023-05-07T02:23:15.435Z,3.20
2023-05-07T02:25:43.452Z,2.85
2023-05-07T02:28:12.691Z,3.75
2023-05-07T02:30:59.467Z,2.90
2023-05-07T02:33:27.433Z,3.20
2023-05-07T02:35:55.656Z,3.22
2023-05-07T02:38:24.336Z,3.20
2023-05-07T02:40:52.055Z,3.38
2023-05-07T02:43:21.164Z,3.60
2023-05-07T02:45:50.991Z,3.50
2023-05-07T02:48:18.771Z,3.42
2023-05-07T02:50:46.676Z,3.67
2023-05-07T02:53:16.460Z,3.13
2023-05-07T02:55:44.265Z,3.30
2023-05-07T02:58:11.893Z,3.53
2023-05-07T03:00:43.427Z,3.42
2023-05-07T03:03:21.972Z,3.38
2023-05-07T03:05:50.971Z,3.47
2023-05-07T03:08:18.914Z,3.42
2023-05-07T03:10:47.294Z,3.95
2023-05-07T03:13:15.185Z,3.72
2023-05-07T03:15:44.546Z,3.63
2023-05-07T03:18:12.791Z,3.45
2023-05-07T03:20:40.785Z,3.70
2023-05-07T03:23:09.098Z,3.30
2023-05-07T03:25:37.726Z,3.85
2023-05-07T03:28:06.534Z,3.30
2023-05-07T03:30:47.837Z,3.40
2023-05-07T03:33:16.429Z,3.60
2023-05-07T03:35:45.240Z,3.40
2023-05-07T03:38:16.048Z,3.70
2023-05-07T03:40:44.149Z,3.70
2023-05-07T03:43:13.838Z,4.15
2023-05-07T03:45:47.533Z,3.90
2023-05-07T03:48:22.870Z,3.60
2023-05-07T03:50:52.671Z,3.42
2023-05-07T03:53:21.782Z,3.63
2023-05-07T03:55:49.898Z,3.70
2023-05-07T03:58:18.774Z,3.80
2023-05-07T04:00:48.249Z,3.35
2023-05-07T04:03:28.819Z,4.03
2023-05-07T04:05:59.705Z,3.70
2023-05-07T04:08:27.622Z,4.15
2023-05-07T04:10:57.724Z,3.67
2023-05-07T04:13:27.567Z,3.47
2023-05-07T04:15:58.211Z,3.30
2023-05-07T04:18:28.058Z,3.70
2023-05-07T04:20:55.932Z,3.33
2023-05-07T04:23:23.835Z,3.92
2023-05-07T04:25:53.006Z,3.55
2023-05-07T04:28:29.302Z,3.60
2023-05-07T04:30:58.380Z,2.90
2023-05-07T04:33:26.334Z,3.45
2023-05-07T04:35:54.030Z,3.97
2023-05-07T04:38:22.858Z,3.67
2023-05-07T04:40:52.920Z,3.75
2023-05-07T04:43:24.683Z,3.65
2023-05-07T04:45:53.829Z,4.10
2023-05-07T04:48:26.366Z,4.00
2023-05-07T04:50:55.020Z,3.90
2023-05-07T04:53:23.983Z,3.47
2023-05-07T04:55:57.762Z,3.50
2023-05-07T04:58:27.097Z,3.90
2023-05-07T05:00:55.046Z,3.60
2023-05-07T05:03:23.228Z,3.60
2023-05-07T05:05:53.252Z,3.50
2023-05-07T05:08:23.569Z,3.45
2023-05-07T05:10:52.495Z,3.55
2023-05-07T05:13:20.850Z,3.72
2023-05-07T05:15:49.348Z,3.63
2023-05-07T05:18:17.190Z,3.65
2023-05-07T05:20:44.904Z,3.92
2023-05-07T05:23:15.727Z,3.45
2023-05-07T05:25:43.492Z,3.72
2023-05-07T05:28:13.551Z,3.33
2023-05-07T05:30:41.383Z,3.38
2023-05-07T05:33:10.540Z,3.70
2023-05-07T05:35:38.335Z,3.47
2023-05-07T05:38:11.521Z,3.47
2023-05-07T05:40:41.745Z,3.40
2023-05-07T05:43:10.300Z,3.25
2023-05-07T05:45:39.435Z,3.70
2023-05-07T05:48:09.690Z,3.63
2023-05-07T05:50:37.712Z,3.25
2023-05-07T05:53:06.673Z,3.30
2023-05-07T05:55:35.747Z,3.60
2023-05-07T05:58:07.700Z,3.42
2023-05-07T06:00:39.679Z,3.25
2023-05-07T06:03:08.522Z,3.90
2023-05-07T06:05:37.794Z,3.45
2023-05-07T06:08:06.574Z,3.30
2023-05-07T06:10:37.922Z,3.20
2023-05-07T06:13:10.069Z,3.28
2023-05-07T06:15:38.978Z,3.58
2023-05-07T06:18:11.449Z,3.30
2023-05-07T06:20:39.198Z,3.08
2023-05-07T06:23:12.819Z,3.35
2023-05-07T06:25:40.909Z,3.00
2023-05-07T06:28:12.964Z,2.92
2023-05-07T06:30:43.122Z,3.28
2023-05-07T06:33:11.835Z,3.20
2023-05-07T06:35:39.972Z,3.03
2023-05-07T06:38:08.106Z,2.83
2023-05-07T06:40:36.836Z,3.20
2023-05-07T06:43:06.418Z,3.10
2023-05-07T06:45:49.343Z,3.28
2023-05-07T06:48:17.563Z,3.65
2023-05-07T06:51:01.774Z,3.28
2023-05-07T06:53:32.140Z,3.05
2023-05-07T06:56:02.041Z,2.75
2023-05-07T06:58:30.892Z,3.30
2023-05-07T07:01:00.448Z,2.88
2023-05-07T07:03:28.535Z,3.38
2023-05-07T07:05:57.507Z,3.47
2023-05-07T07:08:25.778Z,2.97
2023-05-07T07:10:54.533Z,3.33
2023-05-07T07:13:22.425Z,3.15
2023-05-07T07:15:50.237Z,4.50
2023-05-07T07:18:21.156Z,3.42
2023-05-07T07:20:50.195Z,3.00
2023-05-07T07:23:18.074Z,2.92
2023-05-07T07:25:45.856Z,3.30
2023-05-07T07:28:13.886Z,3.28
2023-05-07T07:30:41.839Z,3.78
2023-05-07T07:33:10.595Z,3.08
2023-05-07T07:35:41.071Z,2.85
2023-05-07T07:38:09.110Z,3.00
2023-05-07T07:40:37.658Z,3.10
2023-05-07T07:43:07.377Z,2.83
2023-05-07T07:45:35.944Z,3.03
2023-05-07T07:48:04.443Z,2.80
2023-05-07T07:50:44.699Z,3.05
2023-05-07T07:53:17.363Z,2.85
2023-05-07T07:55:46.150Z,2.90
2023-05-07T07:58:17.554Z,3.30
2023-05-07T08:00:45.680Z,2.67
2023-05-07T08:03:15.543Z,3.20
2023-05-07T08:05:46.651Z,3.13
2023-05-07T08:08:14.390Z,2.83
2023-05-07T08:10:45.683Z,2.80
2023-05-07T08:13:21.746Z,3.30
2023-05-07T08:15:49.610Z,3.05
2023-05-07T08:18:17.836Z,3.47
2023-05-07T08:20:46.969Z,3.97
2023-05-07T08:23:20.392Z,3.03
2023-05-07T08:25:50.969Z,3.25
2023-05-07T08:28:20.568Z,3.33
2023-05-07T08:30:49.457Z,3.53
2023-05-07T08:33:17.202Z,2.90
2023-05-07T08:35:45.364Z,2.85
2023-05-07T08:38:15.614Z,3.40
2023-05-07T08:40:44.630Z,3.85
2023-05-07T08:43:21.836Z,3.72
2023-05-07T08:45:52.819Z,3.35
2023-05-07T08:48:24.497Z,3.90
2023-05-07T08:51:01.280Z,3.17
2023-05-07T08:53:29.252Z,2.83
2023-05-07T08:55:57.924Z,2.60
2023-05-07T08:58:26.958Z,2.80
2023-05-07T09:00:56.049Z,2.95
2023-05-07T09:03:25.026Z,3.17
2023-05-07T09:05:55.363Z,2.70
2023-05-07T09:08:28.461Z,2.80
2023-05-07T09:10:59.364Z,2.88
2023-05-07T09:13:30.179Z,2.80
2023-05-07T09:15:59.752Z,3.05
2023-05-07T09:18:27.590Z,3.40
2023-05-07T09:20:57.514Z,3.53
2023-05-07T09:23:25.738Z,3.70
2023-05-07T09:26:02.401Z,2.75
2023-05-07T09:28:35.566Z,3.85
2023-05-07T09:31:04.076Z,3.25
2023-05-07T09:33:32.102Z,3.55
2023-05-07T09:36:06.039Z,3.00
2023-05-07T09:38:35.417Z,2.58
2023-05-07T09:41:07.351Z,2.92
2023-05-07T09:43:42.709Z,3.38
2023-05-07T09:46:15.062Z,2.97
2023-05-07T09:48:50.278Z,2.75
2023-05-07T09:51:27.825Z,2.60
2023-05-07T09:53:58.045Z,2.85
2023-05-07T09:56:27.642Z,3.00
2023-05-07T09:58:59.533Z,2.50
2023-05-07T10:01:28.990Z,2.33
2023-05-07T10:03:58.166Z,2.67
2023-05-07T10:06:26.916Z,2.97
2023-05-07T10:08:55.880Z,3.00
2023-05-07T10:11:24.240Z,2.20
2023-05-07T10:13:54.502Z,2.10
2023-05-07T10:16:24.810Z,1.98
2023-05-07T10:18:53.673Z,2.40
2023-05-07T10:21:25.827Z,2.25
2023-05-07T10:24:02.027Z,2.00
2023-05-07T10:26:34.573Z,2.60
2023-05-07T10:29:07.793Z,2.33
2023-05-07T10:31:58.529Z,2.60
2023-05-07T10:34:32.325Z,2.35
2023-05-07T10:37:00.608Z,3.03
2023-05-07T10:39:29.439Z,2.83
2023-05-07T10:41:57.342Z,2.70
2023-05-07T10:44:30.006Z,2.30
2023-05-07T10:47:11.349Z,2.65
2023-05-07T10:50:13.172Z,2.40
2023-05-07T10:52:42.572Z,2.58
2023-05-07T10:55:23.252Z,2.60
2023-05-07T10:58:31.876Z,2.60
2023-05-07T11:01:11.954Z,2.47
2023-05-07T11:04:15.273Z,2.45
2023-05-07T11:07:22.532Z,2.30
2023-05-07T11:10:02.454Z,2.00
2023-05-07T11:12:55.602Z,2.35
2023-05-07T11:15:37.688Z,2.40
2023-05-07T11:18:12.231Z,2.53
2023-05-07T11:20:57.106Z,2.40
2023-05-07T11:23:57.407Z,2.40
2023-05-07T11:26:46.930Z,1.95
2023-05-07T11:29:18.877Z,2.30
2023-05-07T11:31:53.480Z,2.08
2023-05-07T11:34:24.310Z,2.05
2023-05-07T11:36:56.002Z,1.95
2023-05-07T11:39:36.636Z,2.40
2023-05-07T11:42:05.011Z,2.03
2023-05-07T11:44:47.145Z,2.10
2023-05-07T11:47:19.735Z,2.28
2023-05-07T11:49:49.504Z,1.77
2023-05-07T11:52:20.050Z,2.05
2023-05-07T11:54:51.638Z,2.25
2023-05-07T11:57:19.651Z,1.80
2023-05-07T11:59:48.474Z,2.10
2023-05-07T12:02:16.623Z,2.20
2023-05-07T12:04:44.456Z,1.85
2023-05-07T12:07:13.995Z,5.28
2023-05-07T12:09:43.418Z,2.28
2023-05-07T12:12:11.265Z,2.10
2023-05-07T12:14:42.346Z,2.00
2023-05-07T12:17:11.534Z,2.30
2023-05-07T12:19:40.995Z,2.10
2023-05-07T12:22:10.607Z,2.03
2023-05-07T12:24:50.916Z,2.10
2023-05-07T12:27:19.753Z,2.20
2023-05-07T12:29:48.877Z,1.92
2023-05-07T12:32:17.662Z,2.00
2023-05-07T12:34:46.161Z,1.92
2023-05-07T12:37:14.665Z,2.13
2023-05-07T12:39:49.468Z,2.10
2023-05-07T12:42:18.116Z,2.10
2023-05-07T12:44:48.358Z,2.33
2023-05-07T12:47:17.314Z,2.20
2023-05-07T12:49:46.916Z,2.20
2023-05-07T12:52:14.995Z,2.05
2023-05-07T12:54:43.030Z,2.10
2023-05-07T12:57:12.440Z,2.13
2023-05-07T12:59:42.102Z,2.30
2023-05-07T13:02:10.970Z,2.25
2023-05-07T13:04:41.333Z,2.28
2023-05-07T13:07:09.289Z,2.45
2023-05-07T13:09:38.020Z,2.03
2023-05-07T13:12:07.150Z,2.22
2023-05-07T13:14:36.985Z,2.38
2023-05-07T13:17:04.992Z,2.53
2023-05-07T13:19:32.955Z,2.22
2023-05-07T13:22:01.071Z,2.22
2023-05-07T13:24:29.248Z,2.40
2023-05-07T13:26:57.320Z,2.40
2023-05-07T13:29:29.569Z,2.20
2023-05-07T13:31:59.367Z,2.45
2023-05-07T13:34:27.448Z,2.13
2023-05-07T13:36:56.099Z,2.50
2023-05-07T13:39:23.863Z,2.20
2023-05-07T13:41:51.633Z,2.63
2023-05-07T13:44:19.661Z,2.25
2023-05-07T13:46:47.712Z,2.42
2023-05-07T13:49:16.814Z,2.80
2023-05-07T13:51:44.496Z,2.45
2023-05-07T13:54:12.807Z,2.35
2023-05-07T13:56:41.234Z,2.70
2023-05-07T13:59:09.300Z,2.60
2023-05-07T14:01:36.990Z,2.70
2023-05-07T14:04:04.989Z,2.70
2023-05-07T14:06:34.353Z,2.88
2023-05-07T14:09:02.317Z,2.65
2023-05-07T14:11:30.445Z,2.75
2023-05-07T14:13:59.439Z,2.88
2023-05-07T14:16:27.317Z,3.17
2023-05-07T14:18:58.057Z,3.00
2023-05-07T14:21:26.313Z,2.70
2023-05-07T14:23:57.485Z,2.80
2023-05-07T14:26:25.242Z,3.08
2023-05-07T14:28:53.136Z,3.08
2023-05-07T14:31:21.442Z,3.05
2023-05-07T14:33:50.782Z,3.70
2023-05-07T14:36:18.503Z,3.10
2023-05-07T14:38:46.288Z,3.72
2023-05-07T14:41:15.919Z,3.53
2023-05-07T14:43:50.631Z,3.70
2023-05-07T14:46:19.444Z,3.55
2023-05-07T14:48:47.635Z,2.97
2023-05-07T14:51:15.749Z,2.85
2023-05-07T14:53:44.298Z,3.50
2023-05-07T14:56:12.571Z,3.50
2023-05-07T14:58:41.893Z,3.40
2023-05-07T15:01:10.127Z,3.22
2023-05-07T15:03:38.563Z,3.90
2023-05-07T15:06:06.657Z,4.13
2023-05-07T15:08:34.409Z,3.65
2023-05-07T15:11:02.283Z,2.45
2023-05-07T15:13:30.185Z,2.42
2023-05-07T15:16:00.287Z,3.17
2023-05-07T15:18:28.190Z,3.00
2023-05-07T15:20:59.304Z,3.20
2023-05-07T15:23:27.178Z,3.38
2023-05-07T15:25:55.022Z,3.97
2023-05-07T15:28:23.639Z,4.35
2023-05-07T15:30:52.385Z,4.57
2023-05-07T15:33:23.200Z,4.88
2023-05-07T15:35:50.908Z,4.95
2023-05-07T15:38:18.808Z,5.00
2023-05-07T15:40:46.662Z,4.70
2023-05-07T15:43:15.215Z,4.68
2023-05-07T15:45:44.235Z,5.10
2023-05-07T15:48:13.097Z,5.70
2023-05-07T15:50:42.676Z,5.07
2023-05-07T15:53:10.815Z,5.40
2023-05-07T15:55:38.781Z,5.53
2023-05-07T15:58:06.890Z,5.10
2023-05-07T16:00:36.102Z,5.00
2023-05-07T16:03:04.059Z,8.50
2023-05-07T16:05:32.201Z,10.00
2023-05-07T16:08:01.427Z,7.45
2023-05-07T16:10:29.358Z,5.57
2023-05-07T16:12:58.344Z,5.60
2023-05-07T16:15:26.241Z,5.20
2023-05-07T16:17:57.961Z,5.50
2023-05-07T16:20:30.360Z,5.80
2023-05-07T16:22:58.521Z,5.28
2023-05-07T16:25:27.676Z,5.40
2023-05-07T16:27:55.608Z,4.85
2023-05-07T16:30:23.763Z,5.35
2023-05-07T16:32:51.814Z,4.07
2023-05-07T16:35:20.513Z,4.20
2023-05-07T16:37:48.237Z,3.80
2023-05-07T16:40:16.156Z,4.32
2023-05-07T16:42:45.460Z,4.03
2023-05-07T16:45:13.641Z,4.18
2023-05-07T16:47:41.725Z,4.32
2023-05-07T16:50:10.335Z,3.80
2023-05-07T16:52:38.050Z,4.63
2023-05-07T16:55:07.123Z,4.13
2023-05-07T16:57:35.038Z,4.70
2023-05-07T17:00:07.735Z,4.18
2023-05-07T17:02:36.015Z,4.22
2023-05-07T17:05:06.436Z,4.38
2023-05-07T17:07:34.259Z,4.65
2023-05-07T17:10:03.217Z,4.70
2023-05-07T17:12:31.589Z,4.97
2023-05-07T17:14:59.365Z,5.70
2023-05-07T17:17:28.623Z,4.40
2023-05-07T17:19:56.457Z,3.15
2023-05-07T17:22:25.030Z,2.90
2023-05-07T17:24:52.919Z,3.20
2023-05-07T17:27:20.631Z,4.10
2023-05-07T17:29:48.255Z,4.63
2023-05-07T17:32:16.132Z,4.47
2023-05-07T17:34:45.536Z,4.05
2023-05-07T17:37:13.201Z,4.50
2023-05-07T17:39:40.952Z,3.78
2023-05-07T17:42:08.844Z,3.88
2023-05-07T17:44:37.068Z,4.00
2023-05-07T17:47:04.940Z,4.35
2023-05-07T17:49:32.575Z,4.00
2023-05-07T17:52:02.241Z,3.22
2023-05-07T17:54:30.552Z,3.28
2023-05-07T17:56:58.607Z,3.35
2023-05-07T17:59:26.305Z,3.20
2023-05-07T18:01:54.201Z,3.40
2023-05-07T18:04:24.740Z,3.13
2023-05-07T18:06:52.436Z,3.05
2023-05-07T18:09:21.983Z,3.58
2023-05-07T18:11:49.800Z,3.70
2023-05-07T18:14:17.710Z,3.78
2023-05-07T18:16:45.536Z,4.20
2023-05-07T18:19:13.547Z,3.80
2023-05-07T18:21:41.331Z,4.53
2023-05-07T18:24:11.097Z,4.38
2023-05-07T18:26:40.509Z,5.03
2023-05-07T18:29:08.463Z,5.18
2023-05-07T18:31:37.813Z,5.30
2023-05-07T18:34:06.581Z,5.20
2023-05-07T18:36:35.639Z,5.60
2023-05-07T18:39:03.991Z,5.60
2023-05-07T18:41:32.311Z,5.75
2023-05-07T18:44:01.748Z,5.70
2023-05-07T18:46:30.380Z,5.43
2023-05-07T18:48:58.413Z,5.13
2023-05-07T18:51:27.269Z,5.88
2023-05-07T18:53:55.191Z,9.23
2023-05-07T18:56:22.895Z,6.47
2023-05-07T18:58:50.552Z,5.80
2023-05-07T19:01:19.698Z,4.93
2023-05-07T19:03:47.513Z,5.38
2023-05-07T19:06:15.372Z,5.13
2023-05-07T19:08:43.207Z,4.68
2023-05-07T19:11:10.985Z,4.82
2023-05-07T19:13:38.965Z,5.20
2023-05-07T19:16:10.149Z,6.03
2023-05-07T19:18:39.329Z,6.85
2023-05-07T19:21:08.364Z,5.38
2023-05-07T19:23:41.505Z,6.07
2023-05-07T19:26:10.041Z,6.35
2023-05-07T19:28:42.307Z,6.65
2023-05-07T19:31:19.505Z,5.25
2023-05-07T19:33:49.300Z,4.68
2023-05-07T19:36:17.874Z,4.88
2023-05-07T19:38:46.828Z,4.72
2023-05-07T19:41:14.490Z,4.15
2023-05-07T19:43:42.973Z,4.18
2023-05-07T19:46:12.085Z,4.05
2023-05-07T19:48:40.388Z,3.78
2023-05-07T19:51:09.570Z,3.70
2023-05-07T19:53:38.049Z,3.30
2023-05-07T19:56:07.517Z,3.33
2023-05-07T19:58:36.289Z,2.83
2023-05-07T20:01:06.178Z,2.72
2023-05-07T20:03:35.126Z,2.92
2023-05-07T20:06:03.334Z,2.88
2023-05-07T20:08:32.455Z,3.05
2023-05-07T20:11:00.692Z,3.30
2023-05-07T20:13:28.894Z,4.20
2023-05-07T20:16:00.163Z,5.85
2023-05-07T20:18:28.593Z,5.93
2023-05-07T20:20:56.763Z,6.15
2023-05-07T20:23:24.952Z,6.60
2023-05-07T20:25:53.999Z,6.85
2023-05-07T20:28:21.675Z,6.32
2023-05-07T20:30:49.547Z,6.07
2023-05-07T20:33:17.564Z,5.57
2023-05-07T20:35:45.915Z,6.05
2023-05-07T20:38:13.955Z,6.20
2023-05-07T20:40:42.337Z,5.47
2023-05-07T20:43:11.595Z,5.47
2023-05-07T20:45:39.967Z,6.03
2023-05-07T20:48:09.575Z,5.25
2023-05-07T20:50:37.389Z,5.22
2023-05-07T20:53:05.016Z,5.10
2023-05-07T20:55:32.728Z,5.03
2023-05-07T20:58:00.702Z,4.95
2023-05-07T21:00:29.899Z,4.35
2023-05-07T21:02:57.946Z,4.43
2023-05-07T21:05:25.856Z,4.70
2023-05-07T21:07:53.523Z,3.95
2023-05-07T21:10:21.423Z,5.00
2023-05-07T21:12:49.393Z,5.18
2023-05-07T21:15:17.366Z,5.15
2023-05-07T21:17:46.650Z,5.65
2023-05-07T21:20:14.678Z,5.70
2023-05-07T21:22:42.736Z,5.60
2023-05-07T21:25:13.307Z,5.80
2023-05-07T21:27:41.299Z,5.47
2023-05-07T21:30:10.686Z,6.25
2023-05-07T21:32:38.957Z,6.90
2023-05-07T21:35:12.345Z,6.80
2023-05-07T21:37:40.371Z,6.68
2023-05-07T21:40:09.467Z,7.45
2023-05-07T21:42:37.187Z,7.95
2023-05-07T21:45:06.718Z,8.35
2023-05-07T21:47:34.998Z,8.98
2023-05-07T21:50:02.923Z,8.85
2023-05-07T21:52:31.888Z,9.77
2023-05-07T21:54:59.704Z,9.88
2023-05-07T21:57:27.483Z,10.50
2023-05-07T21:59:55.829Z,10.45
2023-05-07T22:02:23.738Z,10.23
2023-05-07T22:04:51.759Z,10.52
2023-05-07T22:07:19.501Z,10.25
2023-05-07T22:09:48.668Z,10.82
2023-05-07T22:12:16.542Z,11.25
2023-05-07T22:14:44.967Z,10.70
2023-05-07T22:17:13.015Z,10.93
2023-05-07T22:19:40.728Z,10.43
2023-05-07T22:22:08.519Z,10.75
2023-05-07T22:24:36.452Z,9.82
2023-05-07T22:27:05.503Z,9.55
2023-05-07T22:29:33.201Z,8.95
2023-05-07T22:32:01.227Z,9.45
2023-05-07T22:34:29.011Z,8.63
2023-05-07T22:36:58.329Z,8.32
2023-05-07T22:39:26.006Z,7.60
2023-05-07T22:41:53.678Z,7.97
2023-05-07T22:44:22.736Z,7.75
2023-05-07T22:46:50.852Z,8.15
2023-05-07T22:49:18.556Z,7.80
2023-05-07T22:51:46.335Z,8.07
2023-05-07T22:54:14.036Z,7.75
2023-05-07T22:56:41.965Z,8.10
2023-05-07T22:59:09.672Z,7.18
2023-05-07T23:01:39.209Z,7.13
2023-05-07T23:04:07.032Z,7.25
2023-05-07T23:06:34.637Z,7.13
2023-05-07T23:09:02.702Z,6.30
2023-05-07T23:11:31.762Z,6.65
2023-05-07T23:13:59.376Z,6.63
2023-05-07T23:16:28.723Z,6.78
2023-05-07T23:18:57.901Z,6.65
2023-05-07T23:21:25.820Z,6.97
2023-05-07T23:23:54.330Z,7.32
2023-05-07T23:26:22.168Z,7.40
2023-05-07T23:28:50.119Z,7.43
2023-05-07T23:31:18.129Z,6.85
2023-05-07T23:33:46.043Z,7.70
2023-05-07T23:36:15.463Z,7.78
2023-05-07T23:38:43.452Z,8.13
2023-05-07T23:41:11.501Z,8.07
2023-05-07T23:43:39.335Z,8.95
2023-05-07T23:46:08.026Z,7.97
2023-05-07T23:48:36.128Z,7.75
2023-05-07T23:51:03.910Z,8.93
2023-05-07T23:53:33.152Z,8.07
2023-05-07T23:56:01.008Z,8.20
2023-05-07T23:58:28.746Z,8.32
